< < Back
Terminal Aerodrome Forecast


Current Version              Previous Versions:   1  2  3  4  5  6  7  8  9  

Terminal Aerodrome Forecast

022
FTUS44 KBMX 310520
TAFTCL
TAF
KTCL 310520Z 3106/0106 00000KT P6SM FEW080 BKN250
      TEMPO 3110/3112 5SM BR
     FM311600 25004KT P6SM SCT050
     FM010200 00000KT P6SM SCT250=

Latest METAR

563
SAUS70 KWBC 311600 RRC
MTRTCL
METAR KTCL 311553Z 00000KT 9SM CLR 32/18 A2995 RMK AO2 SLP141
T03220178


USA.gov is the U.S. government's official web portal to all federal, state and local government web resources and services.